Time;durP1;ratioP1;P1;durP2;ratioP2;P2;SDS_P1;SDS_P2;PMS_P1;PMS_P2;Temp;Humidity;BMP_temperature;BMP_pressure;BME280_temperature;BME280_humidity;BME280_pressure;Samples;Min_cycle;Max_cycle;Signal;HPM_P1;HPM_P2
2021/05/07 00:00:30;;;;;;;;;;;6.90;99.90;;;;;;5049390;28;19916;-69
2021/05/07 00:02:57;;;;;;;;;;;6.90;99.90;;;;;;5049681;28;20058;-69
2021/05/07 00:05:23;;;;;;;;;;;6.90;99.90;;;;;;5049646;28;19928;-69
2021/05/07 00:07:49;;;;;;;;;;;6.90;99.90;;;;;;5032023;28;19920;-69
2021/05/07 00:10:14;;;;;;;;;;;6.90;99.90;;;;;;5049687;28;19917;-69
2021/05/07 00:12:40;;;;;;;;;;;6.90;99.90;;;;;;5048313;28;19916;-69
2021/05/07 00:15:08;;;;;;;;;;;7.00;99.90;;;;;;5051214;28;19920;-69
2021/05/07 00:17:34;;;;;;;;;;;7.00;99.90;;;;;;5048989;28;19931;-70
2021/05/07 00:19:59;;;;;;;;;;;6.90;99.90;;;;;;5049449;28;19920;-69
2021/05/07 00:22:25;;;;;;;;;;;7.00;99.90;;;;;;5049222;28;19931;-69
2021/05/07 00:24:50;;;;;;;;;;;7.00;99.90;;;;;;5030035;28;20493;-70
2021/05/07 00:27:17;;;;;;;;;;;6.90;99.90;;;;;;5048867;28;19924;-70
2021/05/07 00:29:43;;;;;;;;;;;6.90;99.90;;;;;;5049378;28;19982;-70
2021/05/07 00:32:11;;;;;;;;;;;6.90;99.90;;;;;;5048342;28;19916;-69
2021/05/07 00:34:37;;;;;;;;;;;6.90;99.90;;;;;;5047587;28;19932;-70
2021/05/07 00:37:05;;;;;;;;;;;6.90;99.90;;;;;;5050976;28;19921;-69
2021/05/07 00:39:32;;;;;;;;;;;6.90;99.90;;;;;;5048985;28;19923;-70
2021/05/07 00:42:03;;;;;;;;;;;6.90;99.90;;;;;;5031216;28;19935;-70
2021/05/07 00:44:34;;;;;;;;;;;6.70;99.90;;;;;;5048524;28;20015;-69
2021/05/07 00:47:05;;;;;;;;;;;6.80;99.90;;;;;;5048529;28;19928;-69
2021/05/07 00:49:34;;;;;;;;;;;6.80;99.90;;;;;;5031750;28;19921;-69
2021/05/07 00:52:03;;;;;;;;;;;6.80;99.90;;;;;;5049003;28;19927;-69
2021/05/07 00:54:29;;;;;;;;;;;6.80;99.90;;;;;;5046805;28;19947;-69
2021/05/07 00:56:54;;;;;;;;;;;6.80;99.90;;;;;;5030495;28;20567;-69
2021/05/07 00:59:20;;;;;;;;;;;6.80;99.90;;;;;;5048287;28;19924;-69
2021/05/07 01:01:45;;;;;;;;;;;6.70;99.90;;;;;;5000240;28;19929;-69
2021/05/07 01:04:11;;;;;;;;;;;6.80;99.90;;;;;;5029813;28;20401;-69
2021/05/07 01:06:37;;;;;;;;;;;6.80;99.90;;;;;;5048753;28;20595;-69
2021/05/07 01:09:03;;;;;;;;;;;6.80;99.90;;;;;;5010123;28;19939;-69
2021/05/07 01:11:28;;;;;;;;;;;6.80;99.90;;;;;;4990533;28;19922;-69
2021/05/07 01:13:54;;;;;;;;;;;6.80;99.90;;;;;;5006593;28;19940;-69
2021/05/07 01:16:19;;;;;;;;;;;6.80;99.90;;;;;;5008892;28;20018;-69
2021/05/07 01:18:45;;;;;;;;;;;6.90;99.90;;;;;;5008627;28;19917;-69
2021/05/07 01:21:10;;;;;;;;;;;6.90;99.90;;;;;;5007710;28;20267;-69
2021/05/07 01:23:36;;;;;;;;;;;6.90;99.90;;;;;;5009642;28;20362;-69
2021/05/07 01:26:04;;;;;;;;;;;6.80;99.90;;;;;;5009303;28;20046;-69
2021/05/07 01:28:29;;;;;;;;;;;6.80;99.90;;;;;;5007428;28;20267;-69
2021/05/07 01:30:55;;;;;;;;;;;6.80;99.90;;;;;;5006917;28;19921;-69
2021/05/07 01:33:21;;;;;;;;;;;6.80;99.90;;;;;;5005792;28;19936;-69
2021/05/07 01:35:46;;;;;;;;;;;6.90;99.90;;;;;;4991542;28;20556;-69
2021/05/07 01:38:15;;;;;;;;;;;6.90;99.90;;;;;;5024603;28;19918;-69
2021/05/07 01:40:45;;;;;;;;;;;6.90;99.90;;;;;;4990107;28;20063;-70
2021/05/07 01:43:10;;;;;;;;;;;6.80;99.90;;;;;;5008915;28;20071;-69
2021/05/07 01:45:38;;;;;;;;;;;6.80;99.90;;;;;;5008292;28;19928;-69
2021/05/07 01:48:04;;;;;;;;;;;6.70;99.90;;;;;;5009073;28;20075;-69
2021/05/07 01:50:31;;;;;;;;;;;6.70;99.90;;;;;;4976428;28;20421;-69
2021/05/07 01:52:56;;;;;;;;;;;6.80;99.90;;;;;;5007855;28;20019;-69
2021/05/07 01:55:28;;;;;;;;;;;6.80;99.90;;;;;;5024079;28;20023;-69
2021/05/07 01:57:53;;;;;;;;;;;6.80;99.90;;;;;;5007727;28;19932;-69
2021/05/07 02:00:20;;;;;;;;;;;6.80;99.90;;;;;;5006403;28;19913;-69
2021/05/07 02:02:48;;;;;;;;;;;6.90;99.90;;;;;;5007842;28;19947;-69
2021/05/07 02:05:13;;;;;;;;;;;6.90;99.90;;;;;;5007133;28;19925;-69
2021/05/07 02:07:39;;;;;;;;;;;6.90;99.90;;;;;;5005528;28;19968;-69
2021/05/07 02:10:06;;;;;;;;;;;6.90;99.90;;;;;;4991740;28;19961;-69
2021/05/07 02:12:32;;;;;;;;;;;6.90;99.90;;;;;;5007160;28;19992;-70
2021/05/07 02:14:59;;;;;;;;;;;6.80;99.90;;;;;;5007668;28;20353;-69
2021/05/07 02:17:25;;;;;;;;;;;6.80;99.90;;;;;;5007011;28;20251;-69
2021/05/07 02:19:53;;;;;;;;;;;6.70;99.90;;;;;;5007530;28;19921;-69
2021/05/07 02:22:18;;;;;;;;;;;6.70;99.90;;;;;;5003863;28;19925;-69
2021/05/07 02:24:44;;;;;;;;;;;6.60;99.90;;;;;;5006698;28;19928;-69
2021/05/07 02:27:12;;;;;;;;;;;6.60;99.90;;;;;;5006990;28;19917;-69
2021/05/07 02:29:37;;;;;;;;;;;6.40;99.90;;;;;;5022462;28;19935;-69
2021/05/07 02:32:05;;;;;;;;;;;6.30;99.90;;;;;;5008166;28;19920;-69
2021/05/07 02:34:30;;;;;;;;;;;6.30;99.90;;;;;;5006964;28;19921;-69
2021/05/07 02:36:56;;;;;;;;;;;6.20;99.90;;;;;;5005121;28;20485;-69
2021/05/07 02:39:23;;;;;;;;;;;6.10;99.90;;;;;;5006357;28;20358;-69
2021/05/07 02:41:49;;;;;;;;;;;5.90;99.90;;;;;;5005836;28;19921;-69
2021/05/07 02:44:14;;;;;;;;;;;5.90;99.90;;;;;;5006611;28;20539;-69
2021/05/07 02:46:40;;;;;;;;;;;5.80;99.90;;;;;;5006012;28;20041;-69
2021/05/07 02:49:05;;;;;;;;;;;5.70;99.90;;;;;;5008899;28;19922;-69
2021/05/07 02:51:31;;;;;;;;;;;5.60;99.90;;;;;;5005870;28;20386;-69
2021/05/07 02:54:00;;;;;;;;;;;5.40;99.90;;;;;;5006203;28;20490;-70
2021/05/07 02:56:25;;;;;;;;;;;5.40;99.90;;;;;;5007234;28;20012;-69
2021/05/07 02:58:51;;;;;;;;;;;5.40;99.90;;;;;;5007339;28;19935;-69
2021/05/07 03:01:16;;;;;;;;;;;5.30;99.90;;;;;;5008297;28;19917;-69
2021/05/07 03:03:42;;;;;;;;;;;5.30;99.90;;;;;;5005275;28;19925;-70
2021/05/07 03:06:08;;;;;;;;;;;5.30;99.90;;;;;;5006145;28;20468;-69
2021/05/07 03:08:35;;;;;;;;;;;5.30;99.90;;;;;;5030464;28;19929;-69
2021/05/07 03:11:01;;;;;;;;;;;5.30;99.90;;;;;;5030304;28;20297;-69
2021/05/07 03:13:26;;;;;;;;;;;5.20;99.90;;;;;;5045476;28;19978;-69
2021/05/07 03:15:54;;;;;;;;;;;5.20;99.90;;;;;;5046669;28;20023;-69
2021/05/07 03:18:20;;;;;;;;;;;5.20;99.90;;;;;;5046802;28;19913;-69
2021/05/07 03:20:48;;;;;;;;;;;5.20;99.90;;;;;;5028718;28;20510;-69
2021/05/07 03:23:16;;;;;;;;;;;5.10;99.90;;;;;;5012552;28;19956;-69
2021/05/07 03:25:41;;;;;;;;;;;5.10;99.90;;;;;;5044966;28;19974;-69
2021/05/07 03:28:07;;;;;;;;;;;5.10;99.90;;;;;;5046392;28;19924;-69
2021/05/07 03:30:33;;;;;;;;;;;5.00;99.90;;;;;;5046626;28;20362;-69
2021/05/07 03:32:59;;;;;;;;;;;5.00;99.90;;;;;;5013399;28;19924;-69
2021/05/07 03:35:24;;;;;;;;;;;5.00;99.90;;;;;;5049856;28;19921;-69
2021/05/07 03:37:50;;;;;;;;;;;4.90;99.90;;;;;;5032655;28;19973;-69
2021/05/07 03:40:15;;;;;;;;;;;4.90;99.90;;;;;;5050341;28;20419;-69
2021/05/07 03:42:44;;;;;;;;;;;4.90;99.90;;;;;;5031000;28;19917;-69
2021/05/07 03:45:12;;;;;;;;;;;4.90;99.90;;;;;;5031192;28;20086;-69
2021/05/07 03:47:37;;;;;;;;;;;4.90;99.90;;;;;;5049926;28;20521;-70
2021/05/07 03:50:04;;;;;;;;;;;4.90;99.90;;;;;;5049152;28;19916;-69
2021/05/07 03:52:29;;;;;;;;;;;4.80;99.90;;;;;;5050852;28;19916;-69
2021/05/07 03:54:55;;;;;;;;;;;4.80;99.90;;;;;;5017540;28;19920;-69
2021/05/07 03:57:24;;;;;;;;;;;4.70;99.90;;;;;;5031429;28;20307;-69
2021/05/07 03:59:50;;;;;;;;;;;4.70;99.90;;;;;;5049948;28;19921;-69
2021/05/07 04:02:15;;;;;;;;;;;4.60;99.90;;;;;;5050553;28;19924;-69
2021/05/07 04:04:44;;;;;;;;;;;4.60;99.90;;;;;;5049447;28;19912;-69
2021/05/07 04:07:10;;;;;;;;;;;4.60;99.90;;;;;;5049145;28;19917;-69
2021/05/07 04:09:42;;;;;;;;;;;4.60;99.90;;;;;;5047790;28;19920;-69
2021/05/07 04:12:13;;;;;;;;;;;4.50;99.90;;;;;;5049349;28;19921;-69
2021/05/07 04:14:39;;;;;;;;;;;4.50;99.90;;;;;;5049363;28;19951;-70
2021/05/07 04:17:04;;;;;;;;;;;4.50;99.90;;;;;;5050428;28;20003;-69
2021/05/07 04:19:30;;;;;;;;;;;4.50;99.90;;;;;;5049104;28;20835;-69
2021/05/07 04:21:58;;;;;;;;;;;4.50;99.90;;;;;;5049773;28;19920;-69
2021/05/07 04:24:26;;;;;;;;;;;4.60;99.90;;;;;;5031395;28;19921;-69
2021/05/07 04:26:54;;;;;;;;;;;4.50;99.90;;;;;;5049405;28;19916;-69
2021/05/07 04:29:20;;;;;;;;;;;4.50;99.90;;;;;;5031225;28;19925;-69
2021/05/07 04:31:47;;;;;;;;;;;4.50;99.90;;;;;;5048700;28;19916;-69
2021/05/07 04:34:12;;;;;;;;;;;4.60;99.90;;;;;;5050062;28;19966;-69
2021/05/07 04:36:38;;;;;;;;;;;4.60;99.90;;;;;;5049342;28;20053;-69
2021/05/07 04:39:06;;;;;;;;;;;4.50;99.90;;;;;;5050214;28;20012;-69
2021/05/07 04:41:32;;;;;;;;;;;4.60;99.90;;;;;;5013659;28;19978;-69
2021/05/07 04:43:59;;;;;;;;;;;4.60;99.90;;;;;;5049606;28;19917;-69
2021/05/07 04:46:25;;;;;;;;;;;4.60;99.90;;;;;;5047469;28;19922;-71
2021/05/07 04:48:50;;;;;;;;;;;4.70;99.90;;;;;;5049200;28;20285;-70
2021/05/07 04:51:18;;;;;;;;;;;4.70;99.90;;;;;;5047812;28;20385;-70
2021/05/07 04:53:44;;;;;;;;;;;4.80;99.90;;;;;;5049009;28;20006;-69
2021/05/07 04:56:09;;;;;;;;;;;4.80;99.90;;;;;;5013429;28;19921;-69
2021/05/07 04:58:37;;;;;;;;;;;4.80;99.90;;;;;;5002397;28;20058;-69
2021/05/07 05:01:03;;;;;;;;;;;4.90;99.90;;;;;;5029289;28;19920;-69
2021/05/07 05:03:28;;;;;;;;;;;4.90;99.90;;;;;;5048810;28;21273;-70
2021/05/07 05:05:54;;;;;;;;;;;4.90;99.90;;;;;;5048829;28;19967;-70
2021/05/07 05:08:20;;;;;;;;;;;5.00;99.90;;;;;;5028559;28;20051;-70
2021/05/07 05:10:45;;;;;;;;;;;5.00;99.90;;;;;;5049339;28;19943;-69
2021/05/07 05:13:11;;;;;;;;;;;5.10;99.90;;;;;;5048562;28;20358;-70
2021/05/07 05:15:36;;;;;;;;;;;5.20;99.90;;;;;;5028990;28;19936;-69
2021/05/07 05:18:02;;;;;;;;;;;5.30;99.90;;;;;;5046623;28;19982;-70
2021/05/07 05:20:27;;;;;;;;;;;5.30;99.90;;;;;;5047236;28;19912;-69
2021/05/07 05:22:55;;;;;;;;;;;5.40;99.90;;;;;;5046506;28;20005;-69
2021/05/07 05:25:21;;;;;;;;;;;5.50;99.90;;;;;;5048587;28;20411;-69
2021/05/07 05:27:46;;;;;;;;;;;5.60;99.90;;;;;;5050257;28;19916;-69
2021/05/07 05:30:12;;;;;;;;;;;5.70;99.90;;;;;;5047934;28;19920;-69
2021/05/07 05:32:37;;;;;;;;;;;5.70;99.90;;;;;;5048880;28;20418;-69
2021/05/07 05:35:06;;;;;;;;;;;5.80;99.90;;;;;;5030253;28;19921;-70
2021/05/07 05:37:32;;;;;;;;;;;5.80;99.90;;;;;;5048365;28;19917;-70
2021/05/07 05:39:57;;;;;;;;;;;5.90;99.90;;;;;;5027926;28;19955;-74
2021/05/07 05:42:25;;;;;;;;;;;5.90;99.90;;;;;;5014091;28;19998;-74
2021/05/07 05:44:51;;;;;;;;;;;6.00;99.90;;;;;;5047063;28;20345;-74
2021/05/07 05:47:16;;;;;;;;;;;6.00;99.90;;;;;;5048186;28;19932;-70
2021/05/07 05:49:42;;;;;;;;;;;6.00;99.90;;;;;;5047057;28;19924;-70
2021/05/07 05:52:10;;;;;;;;;;;6.10;99.90;;;;;;4999377;28;19932;-70
2021/05/07 05:54:36;;;;;;;;;;;6.10;99.90;;;;;;5029246;28;19921;-70
2021/05/07 05:57:01;;;;;;;;;;;6.20;99.90;;;;;;5046993;28;20369;-70
2021/05/07 05:59:29;;;;;;;;;;;6.10;99.90;;;;;;5047803;28;20716;-70
2021/05/07 06:01:57;;;;;;;;;;;6.10;99.90;;;;;;5004330;28;20301;-69
2021/05/07 06:04:23;;;;;;;;;;;6.20;99.90;;;;;;5048805;28;19956;-70
2021/05/07 06:06:48;;;;;;;;;;;6.10;99.90;;;;;;5047395;28;20020;-69
2021/05/07 06:09:14;;;;;;;;;;;6.20;99.90;;;;;;5047422;28;20282;-69
2021/05/07 06:11:39;;;;;;;;;;;6.20;99.90;;;;;;5047180;28;19927;-70
2021/05/07 06:14:05;;;;;;;;;;;6.30;99.90;;;;;;5045803;28;19921;-73
2021/05/07 06:16:35;;;;;;;;;;;6.40;99.90;;;;;;5029202;28;19916;-73
2021/05/07 06:19:01;;;;;;;;;;;6.40;99.90;;;;;;5029729;28;19942;-70
2021/05/07 06:21:26;;;;;;;;;;;6.50;99.90;;;;;;5028557;28;19917;-70
2021/05/07 06:23:52;;;;;;;;;;;6.50;99.90;;;;;;5027486;28;19928;-69
2021/05/07 06:26:17;;;;;;;;;;;6.60;99.90;;;;;;5047371;28;19952;-70
2021/05/07 06:28:45;;;;;;;;;;;6.60;99.90;;;;;;5028362;28;19931;-71
2021/05/07 06:31:11;;;;;;;;;;;6.60;99.90;;;;;;5045872;28;19956;-69
2021/05/07 06:33:39;;;;;;;;;;;6.60;99.90;;;;;;5046565;28;20003;-70
2021/05/07 06:36:05;;;;;;;;;;;6.60;99.90;;;;;;5047715;28;19917;-70
2021/05/07 06:38:31;;;;;;;;;;;6.60;99.90;;;;;;5026373;28;19928;-70
2021/05/07 06:40:56;;;;;;;;;;;6.70;99.90;;;;;;5044269;28;20582;-70
2021/05/07 06:43:22;;;;;;;;;;;6.80;99.90;;;;;;5026622;28;20270;-70
2021/05/07 06:45:49;;;;;;;;;;;6.80;99.90;;;;;;5043823;28;19948;-69
2021/05/07 06:48:17;;;;;;;;;;;6.80;99.90;;;;;;5027132;28;20043;-70
2021/05/07 06:50:43;;;;;;;;;;;6.90;99.90;;;;;;5042589;28;19931;-70
2021/05/07 06:53:08;;;;;;;;;;;6.80;99.90;;;;;;5025601;28;19921;-69
2021/05/07 06:55:36;;;;;;;;;;;6.90;99.90;;;;;;5026675;28;20009;-70
2021/05/07 06:58:02;;;;;;;;;;;6.80;99.90;;;;;;5043492;28;20423;-69
2021/05/07 07:00:30;;;;;;;;;;;6.90;99.90;;;;;;5041572;28;19920;-70
2021/05/07 07:02:57;;;;;;;;;;;6.90;99.90;;;;;;5042973;28;20107;-69
2021/05/07 07:05:23;;;;;;;;;;;6.90;99.90;;;;;;5042822;28;19920;-69
2021/05/07 07:07:48;;;;;;;;;;;6.80;99.90;;;;;;5024822;28;19951;-69
2021/05/07 07:10:14;;;;;;;;;;;6.70;99.90;;;;;;5015965;28;19927;-69
2021/05/07 07:12:42;;;;;;;;;;;6.70;99.90;;;;;;5030125;28;19948;-69
2021/05/07 07:15:08;;;;;;;;;;;6.80;99.90;;;;;;5017665;28;19916;-69
2021/05/07 07:17:36;;;;;;;;;;;6.80;99.90;;;;;;5047818;28;19920;-69
2021/05/07 07:20:04;;;;;;;;;;;6.90;99.90;;;;;;5046419;28;19916;-69
2021/05/07 07:22:29;;;;;;;;;;;6.80;99.90;;;;;;5046689;28;19935;-69
2021/05/07 07:24:55;;;;;;;;;;;6.70;99.90;;;;;;5046059;28;19921;-69
2021/05/07 07:27:20;;;;;;;;;;;6.70;99.90;;;;;;5047376;28;19924;-70
2021/05/07 07:29:47;;;;;;;;;;;6.80;99.90;;;;;;5046569;28;19921;-70
2021/05/07 07:32:12;;;;;;;;;;;6.80;99.90;;;;;;5047972;28;20000;-69
2021/05/07 07:34:38;;;;;;;;;;;6.80;99.90;;;;;;5046976;28;20367;-70
2021/05/07 07:37:03;;;;;;;;;;;6.70;96.70;;;;;;5046288;28;19974;-70
2021/05/07 07:39:29;;;;;;;;;;;6.80;98.80;;;;;;5046762;28;20290;-71
2021/05/07 07:41:56;;;;;;;;;;;6.90;99.90;;;;;;5047379;28;20585;-70
2021/05/07 07:44:22;;;;;;;;;;;7.00;96.30;;;;;;5046699;28;19931;-70
2021/05/07 07:46:47;;;;;;;;;;;7.00;99.90;;;;;;5046723;28;19920;-70
2021/05/07 07:49:13;;;;;;;;;;;7.10;97.00;;;;;;5046764;28;19959;-70
2021/05/07 07:51:39;;;;;;;;;;;7.00;94.50;;;;;;5046567;28;19964;-70
2021/05/07 07:54:07;;;;;;;;;;;7.20;99.90;;;;;;5046789;28;19920;-70
2021/05/07 07:56:34;;;;;;;;;;;7.40;99.90;;;;;;5046589;28;20239;-70
2021/05/07 07:58:59;;;;;;;;;;;7.50;97.00;;;;;;5045779;28;19920;-70
2021/05/07 08:01:25;;;;;;;;;;;7.50;96.80;;;;;;5046222;28;19927;-70
2021/05/07 08:03:50;;;;;;;;;;;7.60;94.40;;;;;;5046480;28;19956;-69
2021/05/07 08:06:16;;;;;;;;;;;7.70;98.80;;;;;;5029705;28;21817;-70
2021/05/07 08:08:41;;;;;;;;;;;7.80;99.00;;;;;;5045553;28;19928;-70
2021/05/07 08:11:07;;;;;;;;;;;7.80;90.10;;;;;;5029461;28;19986;-70
2021/05/07 08:13:32;;;;;;;;;;;7.90;93.70;;;;;;5045671;28;19924;-70
2021/05/07 08:16:00;;;;;;;;;;;7.90;90.80;;;;;;5046204;28;20577;-70
2021/05/07 08:18:26;;;;;;;;;;;8.10;93.70;;;;;;5047139;28;19943;-74
2021/05/07 08:20:51;;;;;;;;;;;8.30;94.60;;;;;;5045710;28;19920;-73
2021/05/07 08:23:19;;;;;;;;;;;8.40;91.60;;;;;;5030374;28;19925;-73
2021/05/07 08:25:45;;;;;;;;;;;8.40;90.90;;;;;;5027397;28;20461;-73
2021/05/07 08:28:12;;;;;;;;;;;8.40;88.60;;;;;;5046175;28;20042;-73
2021/05/07 08:30:38;;;;;;;;;;;8.60;85.60;;;;;;5045081;28;19932;-72
2021/05/07 08:33:04;;;;;;;;;;;8.70;87.10;;;;;;5045321;28;19912;-75
2021/05/07 08:35:32;;;;;;;;;;;8.80;83.50;;;;;;5045752;28;19921;-75
2021/05/07 08:38:02;;;;;;;;;;;8.90;81.40;;;;;;5046320;28;19939;-74
2021/05/07 08:40:27;;;;;;;;;;;9.10;83.60;;;;;;5048323;28;19955;-75
2021/05/07 08:42:54;;;;;;;;;;;9.30;87.10;;;;;;5027817;28;20020;-75
2021/05/07 08:45:22;;;;;;;;;;;9.30;81.50;;;;;;5030868;28;19920;-74
2021/05/07 08:47:50;;;;;;;;;;;9.50;90.60;;;;;;5048030;28;20016;-73
2021/05/07 08:50:16;;;;;;;;;;;9.50;76.80;;;;;;5049777;28;19916;-74
2021/05/07 08:52:41;;;;;;;;;;;9.40;77.00;;;;;;5031272;28;19943;-73
2021/05/07 08:55:07;;;;;;;;;;;9.50;77.90;;;;;;5048837;28;19913;-73
2021/05/07 08:57:32;;;;;;;;;;;9.60;76.70;;;;;;5013360;28;19943;-72
2021/05/07 08:59:58;;;;;;;;;;;9.60;73.10;;;;;;5047393;28;19917;-72
2021/05/07 09:02:27;;;;;;;;;;;9.80;76.00;;;;;;5048036;28;19936;-72
2021/05/07 09:04:54;;;;;;;;;;;9.80;71.40;;;;;;5046471;28;19921;-74
2021/05/07 09:07:21;;;;;;;;;;;10.00;79.10;;;;;;5048936;28;19977;-74
2021/05/07 09:09:48;;;;;;;;;;;9.70;72.40;;;;;;5030842;28;21701;-75
2021/05/07 09:12:24;;;;;;;;;;;9.90;75.20;;;;;;5030482;28;19921;-72
2021/05/07 09:14:52;;;;;;;;;;;10.00;78.00;;;;;;5030568;28;19966;-73
2021/05/07 09:17:18;;;;;;;;;;;10.10;74.10;;;;;;5029973;28;19921;-73
2021/05/07 09:19:44;;;;;;;;;;;10.10;75.80;;;;;;5029562;28;19977;-72
2021/05/07 09:22:09;;;;;;;;;;;10.10;75.80;;;;;;5015704;28;19916;-72
2021/05/07 09:24:38;;;;;;;;;;;10.00;70.10;;;;;;5046169;28;19921;-72
2021/05/07 09:27:06;;;;;;;;;;;10.10;76.10;;;;;;5046604;28;19931;-73
2021/05/07 09:29:32;;;;;;;;;;;10.10;71.20;;;;;;5028030;28;20255;-74
2021/05/07 09:32:01;;;;;;;;;;;10.20;72.80;;;;;;5046170;28;19917;-74
2021/05/07 09:34:26;;;;;;;;;;;10.10;66.60;;;;;;5047460;28;19921;-74
2021/05/07 09:36:55;;;;;;;;;;;10.20;74.50;;;;;;5012528;28;19927;-73
2021/05/07 09:39:23;;;;;;;;;;;10.20;71.60;;;;;;5047214;28;19916;-73
2021/05/07 09:41:52;;;;;;;;;;;10.10;67.30;;;;;;5046793;28;19920;-72
2021/05/07 09:44:24;;;;;;;;;;;10.10;66.20;;;;;;5046268;28;19929;-71
2021/05/07 09:46:53;;;;;;;;;;;10.10;66.10;;;;;;5047069;28;19982;-71
2021/05/07 09:49:24;;;;;;;;;;;9.80;66.80;;;;;;5047508;28;19978;-73
2021/05/07 09:51:50;;;;;;;;;;;8.80;77.90;;;;;;5028298;28;19913;-71
2021/05/07 09:54:15;;;;;;;;;;;7.60;94.10;;;;;;5027779;28;19931;-73
2021/05/07 09:56:43;;;;;;;;;;;6.90;99.90;;;;;;5028751;28;19913;-73
2021/05/07 09:59:09;;;;;;;;;;;6.40;99.90;;;;;;5030100;28;20516;-75
2021/05/07 10:01:35;;;;;;;;;;;5.80;99.90;;;;;;5029469;28;19989;-73
2021/05/07 10:04:03;;;;;;;;;;;5.40;99.90;;;;;;5046120;28;19924;-73
2021/05/07 10:06:29;;;;;;;;;;;5.00;99.90;;;;;;5027948;28;19966;-73
2021/05/07 10:08:54;;;;;;;;;;;4.90;99.90;;;;;;5047358;28;19928;-73
2021/05/07 10:11:20;;;;;;;;;;;4.70;99.90;;;;;;5046357;28;19916;-73
2021/05/07 10:13:46;;;;;;;;;;;4.70;99.90;;;;;;5015762;28;20326;-73
2021/05/07 10:16:14;;;;;;;;;;;4.60;99.90;;;;;;5028385;28;19927;-73
2021/05/07 10:18:42;;;;;;;;;;;4.70;99.90;;;;;;5046021;28;19921;-73
2021/05/07 10:21:08;;;;;;;;;;;4.70;99.90;;;;;;5029041;28;19932;-73
2021/05/07 10:23:34;;;;;;;;;;;4.70;99.90;;;;;;5028278;28;19981;-74
2021/05/07 10:26:00;;;;;;;;;;;4.80;99.90;;;;;;5046518;28;19921;-73
2021/05/07 10:28:26;;;;;;;;;;;4.80;99.90;;;;;;5026043;28;20018;-73
2021/05/07 10:31:10;;;;;;;;;;;5.00;99.90;;;;;;5019007;28;20068;-74
2021/05/07 10:33:37;;;;;;;;;;;5.10;99.90;;;;;;5028231;28;20035;-73
2021/05/07 10:36:05;;;;;;;;;;;5.40;99.90;;;;;;5014074;28;20322;-73
2021/05/07 10:38:31;;;;;;;;;;;5.40;99.90;;;;;;5028216;28;19920;-74
2021/05/07 10:41:03;;;;;;;;;;;5.60;99.90;;;;;;5045299;28;19917;-75
2021/05/07 10:43:34;;;;;;;;;;;5.80;99.90;;;;;;5047453;28;19925;-74
2021/05/07 10:46:00;;;;;;;;;;;6.00;99.90;;;;;;5030190;28;19946;-74
2021/05/07 10:48:26;;;;;;;;;;;6.20;99.90;;;;;;5046141;28;19921;-74
2021/05/07 10:50:56;;;;;;;;;;;6.30;99.90;;;;;;5046313;28;19927;-74
2021/05/07 10:53:28;;;;;;;;;;;6.40;99.90;;;;;;5028095;28;19913;-74
2021/05/07 10:55:53;;;;;;;;;;;6.50;99.90;;;;;;5045143;28;20536;-73
2021/05/07 10:58:29;;;;;;;;;;;6.60;99.90;;;;;;5027343;28;19921;-74
2021/05/07 11:00:54;;;;;;;;;;;6.70;99.90;;;;;;5045173;28;19916;-75
2021/05/07 11:03:22;;;;;;;;;;;6.90;99.90;;;;;;5046003;28;19924;-75
2021/05/07 11:05:50;;;;;;;;;;;7.10;99.90;;;;;;5045528;28;19928;-75
2021/05/07 11:08:16;;;;;;;;;;;7.40;99.90;;;;;;5046558;28;19924;-75
2021/05/07 11:10:41;;;;;;;;;;;7.70;99.90;;;;;;5047356;28;19923;-74
2021/05/07 11:13:07;;;;;;;;;;;8.00;99.90;;;;;;5047541;28;20506;-75
2021/05/07 11:15:36;;;;;;;;;;;8.10;99.90;;;;;;5045955;28;19924;-73
2021/05/07 11:18:07;;;;;;;;;;;8.60;99.90;;;;;;5028436;28;20050;-73
2021/05/07 11:20:34;;;;;;;;;;;8.90;99.90;;;;;;5012276;28;20512;-74
2021/05/07 11:23:00;;;;;;;;;;;9.20;99.90;;;;;;5046053;28;19951;-74
2021/05/07 11:25:25;;;;;;;;;;;9.40;99.90;;;;;;5025363;28;20611;-74
2021/05/07 11:27:51;;;;;;;;;;;9.60;99.90;;;;;;5027612;28;19939;-74
2021/05/07 11:30:19;;;;;;;;;;;9.90;99.90;;;;;;4349174;28;10000844;-74
2021/05/07 11:32:44;;;;;;;;;;;9.90;98.20;;;;;;5045523;28;19921;-73
2021/05/07 11:35:10;;;;;;;;;;;9.70;99.90;;;;;;5009635;28;19924;-72
2021/05/07 11:37:38;;;;;;;;;;;9.30;99.00;;;;;;5026384;28;20368;-73
2021/05/07 11:40:03;;;;;;;;;;;9.20;99.90;;;;;;5025906;28;19981;-73
2021/05/07 11:42:36;;;;;;;;;;;8.80;99.90;;;;;;5045411;28;19936;-73
2021/05/07 11:45:22;;;;;;;;;;;8.40;99.90;;;;;;5044438;28;19916;-71
2021/05/07 11:47:47;;;;;;;;;;;7.80;99.90;;;;;;5044761;28;19920;-73
2021/05/07 11:50:13;;;;;;;;;;;7.80;99.90;;;;;;5027225;28;19932;-74
2021/05/07 11:52:39;;;;;;;;;;;7.60;99.90;;;;;;5046247;28;19964;-74
2021/05/07 11:55:05;;;;;;;;;;;7.50;99.90;;;;;;5044650;28;19916;-73
2021/05/07 11:57:31;;;;;;;;;;;7.50;99.90;;;;;;5046598;28;19916;-74
2021/05/07 11:59:59;;;;;;;;;;;7.70;99.90;;;;;;5047129;28;19921;-74
2021/05/07 12:02:25;;;;;;;;;;;8.10;99.90;;;;;;5012334;28;19917;-74
2021/05/07 12:04:51;;;;;;;;;;;8.40;99.90;;;;;;5028346;28;19925;-74
2021/05/07 12:07:26;;;;;;;;;;;8.50;99.90;;;;;;5010420;28;19986;-73
2021/05/07 12:09:52;;;;;;;;;;;9.00;99.90;;;;;;5047120;28;20309;-74
2021/05/07 12:12:17;;;;;;;;;;;9.00;99.90;;;;;;5028132;28;20045;-74
2021/05/07 12:14:51;;;;;;;;;;;9.30;99.90;;;;;;5029253;28;20491;-74
2021/05/07 12:17:20;;;;;;;;;;;9.40;99.90;;;;;;5046240;28;19924;-73
2021/05/07 12:20:02;;;;;;;;;;;9.50;99.90;;;;;;5048514;28;19921;-74
2021/05/07 12:22:27;;;;;;;;;;;9.50;99.90;;;;;;5049113;28;19959;-74
2021/05/07 12:24:53;;;;;;;;;;;9.30;99.90;;;;;;5048778;28;19924;-75
2021/05/07 12:27:25;;;;;;;;;;;9.10;99.60;;;;;;5048027;28;19943;-74
2021/05/07 12:29:51;;;;;;;;;;;9.50;99.90;;;;;;5031134;28;19956;-74
2021/05/07 12:32:19;;;;;;;;;;;9.20;99.90;;;;;;5046756;28;20020;-75
2021/05/07 12:34:53;;;;;;;;;;;8.80;99.40;;;;;;5047877;28;19920;-72
2021/05/07 12:37:18;;;;;;;;;;;8.80;99.90;;;;;;5047544;28;20600;-72
2021/05/07 12:39:44;;;;;;;;;;;8.70;99.90;;;;;;5026462;28;19916;-72
2021/05/07 12:42:09;;;;;;;;;;;8.50;99.00;;;;;;5046181;28;20003;-73
2021/05/07 12:44:35;;;;;;;;;;;8.00;99.90;;;;;;5047524;28;19932;-73
2021/05/07 12:47:00;;;;;;;;;;;8.20;99.90;;;;;;5030394;28;19963;-73
2021/05/07 12:49:26;;;;;;;;;;;8.00;99.90;;;;;;5047592;28;19923;-74
2021/05/07 12:51:57;;;;;;;;;;;8.00;99.90;;;;;;5047569;28;20531;-75
2021/05/07 12:54:23;;;;;;;;;;;8.20;99.90;;;;;;5029567;28;19917;-74
2021/05/07 12:56:48;;;;;;;;;;;8.10;99.90;;;;;;5030968;28;19932;-74
2021/05/07 12:59:16;;;;;;;;;;;8.10;99.90;;;;;;5046614;28;19939;-74
2021/05/07 13:01:42;;;;;;;;;;;8.40;99.90;;;;;;5046489;28;19916;-74
2021/05/07 13:04:08;;;;;;;;;;;8.80;99.90;;;;;;5016077;28;19982;-75
2021/05/07 13:06:33;;;;;;;;;;;9.10;96.30;;;;;;5046390;28;19921;-76
2021/05/07 13:08:59;;;;;;;;;;;9.40;96.80;;;;;;5046834;28;19935;-73
2021/05/07 13:11:24;;;;;;;;;;;9.70;97.50;;;;;;5047835;28;20582;-73
2021/05/07 13:13:50;;;;;;;;;;;10.00;95.10;;;;;;5047111;28;19928;-74
2021/05/07 13:16:15;;;;;;;;;;;10.20;91.60;;;;;;5046692;28;20541;-71
2021/05/07 13:18:41;;;;;;;;;;;10.40;86.50;;;;;;5047422;28;19917;-73
2021/05/07 13:21:07;;;;;;;;;;;10.40;82.70;;;;;;5026856;28;20507;-71
2021/05/07 13:23:35;;;;;;;;;;;10.50;81.40;;;;;;5026034;28;20048;-73
2021/05/07 13:26:01;;;;;;;;;;;10.60;86.20;;;;;;5028657;28;21833;-71
2021/05/07 13:28:26;;;;;;;;;;;10.70;81.60;;;;;;5027945;28;19923;-73
2021/05/07 13:30:52;;;;;;;;;;;11.00;82.70;;;;;;5046315;28;19920;-74
2021/05/07 13:33:22;;;;;;;;;;;11.10;75.50;;;;;;5027554;28;19928;-74
2021/05/07 13:35:47;;;;;;;;;;;11.10;73.50;;;;;;5045905;28;19927;-73
2021/05/07 13:38:13;;;;;;;;;;;11.50;85.40;;;;;;5045461;28;19921;-73
2021/05/07 13:40:38;;;;;;;;;;;11.60;78.50;;;;;;5045417;28;20293;-74
2021/05/07 13:43:04;;;;;;;;;;;11.50;73.30;;;;;;5045123;28;20023;-73
2021/05/07 13:45:29;;;;;;;;;;;11.00;72.70;;;;;;5045896;28;20062;-74
2021/05/07 13:47:57;;;;;;;;;;;10.80;71.00;;;;;;5019569;28;19921;-72
2021/05/07 13:50:26;;;;;;;;;;;10.50;72.10;;;;;;5026557;28;19928;-74
2021/05/07 13:52:51;;;;;;;;;;;10.50;78.40;;;;;;5044200;28;20555;-75
2021/05/07 13:55:17;;;;;;;;;;;10.40;77.60;;;;;;5045456;28;19921;-76
2021/05/07 13:57:43;;;;;;;;;;;10.00;75.70;;;;;;5009798;28;19931;-76
2021/05/07 14:00:11;;;;;;;;;;;9.80;76.70;;;;;;5028569;28;19916;-73
2021/05/07 14:02:38;;;;;;;;;;;9.90;79.40;;;;;;5045798;28;19931;-74
2021/05/07 14:05:04;;;;;;;;;;;10.20;82.90;;;;;;5025886;28;20421;-73
2021/05/07 14:07:29;;;;;;;;;;;10.20;79.00;;;;;;4695353;28;9999656;-73
2021/05/07 14:09:55;;;;;;;;;;;10.30;78.80;;;;;;5044287;28;21720;-72
2021/05/07 14:12:23;;;;;;;;;;;10.40;72.70;;;;;;5025014;28;19930;-74
2021/05/07 14:14:48;;;;;;;;;;;10.70;82.60;;;;;;5046185;28;19927;-75
2021/05/07 14:17:16;;;;;;;;;;;10.70;71.40;;;;;;5013600;28;19920;-75
2021/05/07 14:19:44;;;;;;;;;;;11.00;78.20;;;;;;5046865;28;19928;-74
2021/05/07 14:22:15;;;;;;;;;;;11.10;73.00;;;;;;5044483;28;20393;-74
2021/05/07 14:24:40;;;;;;;;;;;11.00;69.90;;;;;;5045104;28;20425;-75